Baltia — 9HMG9 — position and weather

sailwx.info

Track history (hours):
 
Tides and Currents Weather Stations Pressure Air Temp Water Temp Dewpoint Dewpoint Depression Visibility Wind Speed Wind Dir Waves Ship Positions

Baltia

Last reported at 2017-Feb-25 06:33 UTC. Time now 2017-Feb-25 07:25 UTC.
Position N 51°09' E 003°47'.

Length 224 m; draft 12.5 m.

Type: Cargo ship. MMSI: 249174000.

Date/timePositionNaut miles runAvg speedWind from/ knotsBaromVisibWave heightAir tempDewpointWater temp
2017-Feb-25 06:33N 51°09' E 003°47'1 0.8
2017-Feb-25 05:33N 51°10' E 003°47'5 4.5
2017-Feb-25 04:34N 51°14' E 003°49'4 4.2
2017-Feb-25 03:34N 51°19' E 003°50'1 0.7
2017-Feb-25 02:33N 51°19' E 003°49'1 0.6
2017-Feb-25 01:34N 51°20' E 003°49'2 1.7
2017-Feb-25 00:33N 51°21' E 003°51'1 0.5
2017-Feb-24 23:34N 51°21' E 003°52'0 0.0
2017-Feb-24 22:33N 51°21' E 003°52'0 0.1
2017-Feb-24 21:34N 51°21' E 003°52'0 0.0
2017-Feb-24 20:34N 51°21' E 003°52'0 0.2
2017-Feb-24 19:33N 51°21' E 003°52'0 0.1
2017-Feb-24 18:33N 51°21' E 003°52'0 0.1
2017-Feb-24 17:33N 51°21' E 003°52'0 0.0
2017-Feb-24 16:33N 51°21' E 003°51'0 0.0
2017-Feb-24 15:34N 51°21' E 003°52'0 0.1
2017-Feb-24 14:31N 51°21' E 003°52'1 0.8
2017-Feb-24 13:34N 51°21' E 003°50'7 7.1
2017-Feb-24 12:34N 51°25' E 003°42'9 8.8
2017-Feb-24 11:33N 51°25' E 003°28'1211.8
2017-Feb-24 10:33N 51°24' E 003°09'1110.8
2017-Feb-24 09:33N 51°25' E 002°52'8 8.0
2017-Feb-24 08:34N 51°22' E 002°40'3 3.3
2017-Feb-24 07:33N 51°24' E 002°35'0 0.1
2017-Feb-24 06:33N 51°24' E 002°35'0 0.1
2017-Feb-24 05:33N 51°24' E 002°35'0 0.1
2017-Feb-24 04:33N 51°24' E 002°36'0 0.2
2017-Feb-24 03:30N 51°24' E 002°36'0 0.1
2017-Feb-24 02:33N 51°24' E 002°36'0 0.1
2017-Feb-24 01:33N 51°24' E 002°36'0 0.1
2017-Feb-24 00:33N 51°24' E 002°36'0 0.0
2017-Feb-23 23:33N 51°24' E 002°36'0 0.1
2017-Feb-23 22:33N 51°24' E 002°36'0 0.0
2017-Feb-23 21:33N 51°24' E 002°36'0 0.1
2017-Feb-23 20:33N 51°24' E 002°36'0 0.1
2017-Feb-23 19:33N 51°24' E 002°36'0 0.4
2017-Feb-23 18:33N 51°24' E 002°35'0 0.1
2017-Feb-23 17:33N 51°24' E 002°35'0 0.0
2017-Feb-23 16:33N 51°24' E 002°35'0 0.1
2017-Feb-23 15:33N 51°24' E 002°35'0 0.0
2017-Feb-23 14:33N 51°24' E 002°35'0 0.0
2017-Feb-23 13:33N 51°24' E 002°35'0 0.0
2017-Feb-23 12:33N 51°24' E 002°35'0 0.0
2017-Feb-23 11:33N 51°24' E 002°35'0 0.2
2017-Feb-23 10:33N 51°24' E 002°35'0 0.4
2017-Feb-23 09:33N 51°24' E 002°35'0 0.1
2017-Feb-23 08:33N 51°24' E 002°35'0 0.0
2017-Feb-23 07:33N 51°24' E 002°35'0 0.1
2017-Feb-23 06:33N 51°24' E 002°35'0 0.0
2017-Feb-23 05:33N 51°24' E 002°35'0 0.1
2017-Feb-23 04:33N 51°24' E 002°35'0 0.0
2017-Feb-23 03:33N 51°24' E 002°35'0 0.0
2017-Feb-23 02:33N 51°24' E 002°35'0 0.2
2017-Feb-23 01:33N 51°24' E 002°35'3 3.4
2017-Feb-23 00:33N 51°22' E 002°30'1111.3
2017-Feb-22 23:33N 51°18' E 002°14'1212.3
2017-Feb-22 22:33N 51°11' E 001°57'1212.5
2017-Feb-22 21:33N 51°03' E 001°42'1212.2
2017-Feb-22 20:33N 50°55' E 001°28'5310.3
2017-Feb-22 15:27N 50°23' E 000°22'1010.9
2017-Feb-22 14:33N 50°20' E 000°08'1110.5
2017-Feb-22 13:30N 50°17' W 000°09'39 9.9
2017-Feb-22 09:34N 50°07' W 001°08'1010.5
2017-Feb-22 08:33N 50°04' W 001°24'1111.2
2017-Feb-22 07:33N 50°01' W 001°41'1212.3
2017-Feb-22 06:33N 49°58' W 001°59'6512.2
2017-Feb-22 01:15N 49°35' W 003°32'811.5
2017-Feb-22 00:33N 49°31' W 003°43'1511.3
2017-Feb-21 23:16N 49°24' W 004°03'4310.9
2017-Feb-21 19:21N 49°04' W 005°00'910.5
2017-Feb-21 18:32N 48°59' W 005°11'1010.5
2017-Feb-21 17:32N 48°53' W 005°24'1010.4
2017-Feb-21 16:33N 48°47' W 005°36'8110.9
2017-Feb-21 09:11N 47°39' W 006°41'  
2017-Feb-17 04:30N 32°18' W 017°53'  
Track history (hours):
 
Tides and Currents Weather Stations Pressure Air Temp Water Temp Dewpoint Dewpoint Depression Visibility Wind Speed Wind Dir Waves Ship Positions

Baltia

Last reported at 2017-Feb-25 06:33 UTC. Time now 2017-Feb-25 07:25 UTC.
Position N 51°09' E 003°47'.

Length 224 m; draft 12.5 m.

Type: Cargo ship. MMSI: 249174000.

Date/timePositionNaut miles runAvg speedWind from/ knotsBaromVisibWave heightAir tempDewpointWater temp
2017-Feb-25 06:33N 51°09' E 003°47'1 0.8
2017-Feb-25 05:33N 51°10' E 003°47'5 4.5
2017-Feb-25 04:34N 51°14' E 003°49'4 4.2
2017-Feb-25 03:34N 51°19' E 003°50'1 0.7
2017-Feb-25 02:33N 51°19' E 003°49'1 0.6
2017-Feb-25 01:34N 51°20' E 003°49'2 1.7
2017-Feb-25 00:33N 51°21' E 003°51'1 0.5
2017-Feb-24 23:34N 51°21' E 003°52'0 0.0
2017-Feb-24 22:33N 51°21' E 003°52'0 0.1
2017-Feb-24 21:34N 51°21' E 003°52'0 0.0
2017-Feb-24 20:34N 51°21' E 003°52'0 0.2
2017-Feb-24 19:33N 51°21' E 003°52'0 0.1
2017-Feb-24 18:33N 51°21' E 003°52'0 0.1
2017-Feb-24 17:33N 51°21' E 003°52'0 0.0
2017-Feb-24 16:33N 51°21' E 003°51'0 0.0
2017-Feb-24 15:34N 51°21' E 003°52'0 0.1
2017-Feb-24 14:31N 51°21' E 003°52'1 0.8
2017-Feb-24 13:34N 51°21' E 003°50'7 7.1
2017-Feb-24 12:34N 51°25' E 003°42'9 8.8
2017-Feb-24 11:33N 51°25' E 003°28'1211.8
2017-Feb-24 10:33N 51°24' E 003°09'1110.8
2017-Feb-24 09:33N 51°25' E 002°52'8 8.0
2017-Feb-24 08:34N 51°22' E 002°40'3 3.3
2017-Feb-24 07:33N 51°24' E 002°35'0 0.1
2017-Feb-24 06:33N 51°24' E 002°35'0 0.1
2017-Feb-24 05:33N 51°24' E 002°35'0 0.1
2017-Feb-24 04:33N 51°24' E 002°36'0 0.2
2017-Feb-24 03:30N 51°24' E 002°36'0 0.1
2017-Feb-24 02:33N 51°24' E 002°36'0 0.1
2017-Feb-24 01:33N 51°24' E 002°36'0 0.1
2017-Feb-24 00:33N 51°24' E 002°36'0 0.0
2017-Feb-23 23:33N 51°24' E 002°36'0 0.1
2017-Feb-23 22:33N 51°24' E 002°36'0 0.0
2017-Feb-23 21:33N 51°24' E 002°36'0 0.1
2017-Feb-23 20:33N 51°24' E 002°36'0 0.1
2017-Feb-23 19:33N 51°24' E 002°36'0 0.4
2017-Feb-23 18:33N 51°24' E 002°35'0 0.1
2017-Feb-23 17:33N 51°24' E 002°35'0 0.0
2017-Feb-23 16:33N 51°24' E 002°35'0 0.1
2017-Feb-23 15:33N 51°24' E 002°35'0 0.0
2017-Feb-23 14:33N 51°24' E 002°35'0 0.0
2017-Feb-23 13:33N 51°24' E 002°35'0 0.0
2017-Feb-23 12:33N 51°24' E 002°35'0 0.0
2017-Feb-23 11:33N 51°24' E 002°35'0 0.2
2017-Feb-23 10:33N 51°24' E 002°35'0 0.4
2017-Feb-23 09:33N 51°24' E 002°35'0 0.1
2017-Feb-23 08:33N 51°24' E 002°35'0 0.0
2017-Feb-23 07:33N 51°24' E 002°35'0 0.1
2017-Feb-23 06:33N 51°24' E 002°35'0 0.0
2017-Feb-23 05:33N 51°24' E 002°35'0 0.1
2017-Feb-23 04:33N 51°24' E 002°35'0 0.0
2017-Feb-23 03:33N 51°24' E 002°35'0 0.0
2017-Feb-23 02:33N 51°24' E 002°35'0 0.2
2017-Feb-23 01:33N 51°24' E 002°35'3 3.4
2017-Feb-23 00:33N 51°22' E 002°30'1111.3
2017-Feb-22 23:33N 51°18' E 002°14'1212.3
2017-Feb-22 22:33N 51°11' E 001°57'1212.5
2017-Feb-22 21:33N 51°03' E 001°42'1212.2
2017-Feb-22 20:33N 50°55' E 001°28'5310.3
2017-Feb-22 15:27N 50°23' E 000°22'1010.9
2017-Feb-22 14:33N 50°20' E 000°08'1110.5
2017-Feb-22 13:30N 50°17' W 000°09'39 9.9
2017-Feb-22 09:34N 50°07' W 001°08'1010.5
2017-Feb-22 08:33N 50°04' W 001°24'1111.2
2017-Feb-22 07:33N 50°01' W 001°41'1212.3
2017-Feb-22 06:33N 49°58' W 001°59'6512.2
2017-Feb-22 01:15N 49°35' W 003°32'811.5
2017-Feb-22 00:33N 49°31' W 003°43'1511.3
2017-Feb-21 23:16N 49°24' W 004°03'4310.9
2017-Feb-21 19:21N 49°04' W 005°00'910.5
2017-Feb-21 18:32N 48°59' W 005°11'1010.5
2017-Feb-21 17:32N 48°53' W 005°24'1010.4
2017-Feb-21 16:33N 48°47' W 005°36'8110.9
2017-Feb-21 09:11N 47°39' W 006°41'  
2017-Feb-17 04:30N 32°18' W 017°53'  

Dump ship's entire track history